createdAt,value
2018-04-15T00:00:25.282Z,52.08
2018-04-15T00:02:53.964Z,33.03
2018-04-15T00:05:21.606Z,36.22
2018-04-15T00:07:49.961Z,31.27
2018-04-15T00:10:17.618Z,30.98
2018-04-15T00:12:45.221Z,32.55
2018-04-15T00:15:13.093Z,30.70
2018-04-15T00:17:40.706Z,30.00
2018-04-15T00:20:08.296Z,36.60
2018-04-15T00:22:36.694Z,31.77
2018-04-15T00:25:04.381Z,29.35
2018-04-15T00:27:32.050Z,41.33
2018-04-15T00:29:59.651Z,30.92
2018-04-15T00:32:27.292Z,32.97
2018-04-15T00:34:54.940Z,34.92
2018-04-15T00:37:22.566Z,36.97
2018-04-15T00:39:50.578Z,42.08
2018-04-15T00:42:18.186Z,31.50
2018-04-15T00:44:46.557Z,28.27
2018-04-15T00:47:14.174Z,54.58
2018-04-15T00:49:41.832Z,48.22
2018-04-15T00:52:09.438Z,30.98
2018-04-15T00:54:37.107Z,45.95
2018-04-15T00:57:05.531Z,56.58
2018-04-15T00:59:33.129Z,54.95
2018-04-15T01:02:00.781Z,43.97
2018-04-15T01:04:28.413Z,56.78
2018-04-15T01:06:56.900Z,52.40
2018-04-15T01:09:24.510Z,32.17
2018-04-15T01:11:52.896Z,42.13
2018-04-15T01:14:20.560Z,41.90
2018-04-15T01:16:48.165Z,46.22
2018-04-15T01:19:15.855Z,33.67
2018-04-15T01:21:43.461Z,31.75
2018-04-15T01:24:11.143Z,33.05
2018-04-15T01:26:38.889Z,31.50
2018-04-15T01:29:06.555Z,31.98
2018-04-15T01:31:34.210Z,29.67
2018-04-15T01:34:01.913Z,32.78
2018-04-15T01:36:29.541Z,32.03
2018-04-15T01:38:57.146Z,32.10
2018-04-15T01:41:24.785Z,31.70
2018-04-15T01:43:52.377Z,32.70
2018-04-15T01:46:19.988Z,38.58
2018-04-15T01:48:47.664Z,36.38
2018-04-15T01:51:15.328Z,34.63
2018-04-15T01:53:42.984Z,35.92
2018-04-15T01:56:10.605Z,32.75
2018-04-15T01:58:38.182Z,73.47
2018-04-15T02:01:05.937Z,86.90
2018-04-15T02:03:33.599Z,32.78
2018-04-15T02:06:02.035Z,32.40
2018-04-15T02:08:30.874Z,35.90
2018-04-15T02:10:59.245Z,59.53
2018-04-15T02:13:26.886Z,35.47
2018-04-15T02:15:54.498Z,36.20
2018-04-15T02:18:22.087Z,34.63
2018-04-15T02:20:49.733Z,33.97
2018-04-15T02:23:17.346Z,37.92
2018-04-15T02:25:45.048Z,37.60
2018-04-15T02:28:12.681Z,36.28
2018-04-15T02:30:41.070Z,37.72
2018-04-15T02:33:08.683Z,37.85
2018-04-15T02:35:36.271Z,35.60
2018-04-15T02:38:04.692Z,38.22
2018-04-15T02:40:32.303Z,42.60
2018-04-15T02:42:59.916Z,51.97
2018-04-15T02:45:27.543Z,60.03
2018-04-15T02:47:55.944Z,39.97
2018-04-15T02:50:23.583Z,50.63
2018-04-15T02:52:51.202Z,54.50
2018-04-15T02:55:18.863Z,50.67
2018-04-15T02:57:46.504Z,62.17
2018-04-15T03:00:14.112Z,53.75
2018-04-15T03:02:41.770Z,55.45
2018-04-15T03:05:09.402Z,40.03
2018-04-15T03:07:36.988Z,43.63
2018-04-15T03:10:04.566Z,46.75
2018-04-15T03:12:32.985Z,39.70
2018-04-15T03:15:00.656Z,49.17
2018-04-15T03:17:28.256Z,43.13
2018-04-15T03:19:55.902Z,49.63
2018-04-15T03:22:23.528Z,40.08
2018-04-15T03:24:51.191Z,40.45
2018-04-15T03:27:18.886Z,46.35
2018-04-15T03:29:46.516Z,57.03
2018-04-15T03:32:14.103Z,55.67
2018-04-15T03:34:41.756Z,54.30
2018-04-15T03:37:09.387Z,51.03
2018-04-15T03:39:37.090Z,51.42
2018-04-15T03:42:04.666Z,52.88
2018-04-15T03:44:32.303Z,54.85
2018-04-15T03:46:59.958Z,56.03
2018-04-15T03:49:28.361Z,53.38
2018-04-15T03:51:55.987Z,46.85
2018-04-15T03:54:23.634Z,50.80
2018-04-15T03:56:51.267Z,59.20
2018-04-15T03:59:18.957Z,42.33
2018-04-15T04:01:47.361Z,62.22
2018-04-15T04:04:14.992Z,45.72
2018-04-15T04:06:43.347Z,49.00
2018-04-15T04:09:10.966Z,45.50
2018-04-15T04:11:38.544Z,48.78
2018-04-15T04:14:06.187Z,65.12
2018-04-15T04:16:33.784Z,48.83
2018-04-15T04:19:13.112Z,48.50
2018-04-15T04:21:52.353Z,50.55
2018-04-15T04:24:31.628Z,51.75
2018-04-15T04:27:00.103Z,45.80
2018-04-15T04:29:28.506Z,53.33
2018-04-15T04:31:56.222Z,45.88
2018-04-15T04:34:24.713Z,53.45
2018-04-15T04:36:52.310Z,51.45
2018-04-15T04:39:20.988Z,52.30
2018-04-15T04:41:48.603Z,50.95
2018-04-15T04:44:16.705Z,48.05
2018-04-15T04:46:45.919Z,49.67
2018-04-15T04:49:13.561Z,54.17
2018-04-15T04:51:41.955Z,52.10
2018-04-15T04:54:09.665Z,56.40
2018-04-15T04:56:37.257Z,53.90
2018-04-15T04:59:05.638Z,57.28
2018-04-15T05:01:33.274Z,58.17
2018-04-15T05:04:00.891Z,63.95
2018-04-15T05:06:28.523Z,48.13
2018-04-15T05:08:57.238Z,57.33
2018-04-15T05:11:24.817Z,55.03
2018-04-15T05:13:52.412Z,52.78
2018-04-15T05:16:19.973Z,53.70
2018-04-15T05:18:47.641Z,69.45
2018-04-15T05:21:15.703Z,63.13
2018-04-15T05:23:43.409Z,55.15
2018-04-15T05:26:11.132Z,58.40
2018-04-15T05:28:38.764Z,60.83
2018-04-15T05:31:06.461Z,59.92
2018-04-15T05:33:35.832Z,49.35
2018-04-15T05:36:03.477Z,57.22
2018-04-15T05:38:31.106Z,65.32
2018-04-15T05:40:59.506Z,61.00
2018-04-15T05:43:27.132Z,58.08
2018-04-15T05:45:54.786Z,72.25
2018-04-15T05:48:22.449Z,61.75
2018-04-15T05:50:50.030Z,59.67
2018-04-15T05:53:17.670Z,61.10
2018-04-15T05:55:45.304Z,57.80
2018-04-15T05:58:13.773Z,61.45
2018-04-15T06:00:41.406Z,64.68
2018-04-15T06:03:09.011Z,60.17
2018-04-15T06:05:36.597Z,69.22
2018-04-15T06:08:04.206Z,63.40
2018-04-15T06:10:32.714Z,63.30
2018-04-15T06:13:00.346Z,69.57
2018-04-15T06:15:27.984Z,68.55
2018-04-15T06:17:57.069Z,69.97
2018-04-15T06:20:24.707Z,64.32
2018-04-15T06:22:52.665Z,64.53
2018-04-15T06:25:20.299Z,71.53
2018-04-15T06:27:48.679Z,54.90
2018-04-15T06:30:16.318Z,70.55
2018-04-15T06:32:45.522Z,62.80
2018-04-15T06:35:13.935Z,70.47
2018-04-15T06:37:41.591Z,61.78
2018-04-15T06:40:09.218Z,61.30
2018-04-15T06:42:37.625Z,55.60
2018-04-15T06:45:05.267Z,58.25
2018-04-15T06:47:32.937Z,70.90
2018-04-15T06:50:00.684Z,64.07
2018-04-15T06:52:28.318Z,61.85
2018-04-15T06:54:56.020Z,65.53
2018-04-15T06:57:23.611Z,61.95
2018-04-15T06:59:52.008Z,59.63
2018-04-15T07:02:19.603Z,64.90
2018-04-15T07:04:48.021Z,64.00
2018-04-15T07:07:15.656Z,58.13
2018-04-15T07:09:43.305Z,61.10
2018-04-15T07:12:10.898Z,64.32
2018-04-15T07:14:38.894Z,56.80
2018-04-15T07:17:06.508Z,61.35
2018-04-15T07:19:34.191Z,54.15
2018-04-15T07:22:01.792Z,53.90
2018-04-15T07:24:29.485Z,59.25
2018-04-15T07:26:57.861Z,53.87
2018-04-15T07:29:26.247Z,51.58
2018-04-15T07:31:54.594Z,54.33
2018-04-15T07:34:22.190Z,48.45
2018-04-15T07:36:50.691Z,46.15
2018-04-15T07:39:18.358Z,42.88
2018-04-15T07:41:46.063Z,38.85
2018-04-15T07:44:14.036Z,40.63
2018-04-15T07:46:41.668Z,37.72
2018-04-15T07:49:09.454Z,36.75
2018-04-15T07:51:37.119Z,38.55
2018-04-15T07:54:05.181Z,40.45
2018-04-15T07:56:32.791Z,33.45
2018-04-15T07:59:00.403Z,32.78
2018-04-15T08:01:28.045Z,31.70
2018-04-15T08:03:55.724Z,31.65
2018-04-15T08:06:23.427Z,29.27
2018-04-15T08:08:51.930Z,35.42
2018-04-15T08:11:19.605Z,29.67
2018-04-15T08:13:47.233Z,26.40
2018-04-15T08:16:14.898Z,26.92
2018-04-15T08:18:43.266Z,28.33
2018-04-15T08:21:10.880Z,26.05
2018-04-15T08:23:38.684Z,25.45
2018-04-15T08:26:06.453Z,22.30
2018-04-15T08:28:34.062Z,23.87
2018-04-15T08:31:01.854Z,19.45
2018-04-15T08:33:29.481Z,14.98
2018-04-15T08:35:57.155Z,14.80
2018-04-15T08:38:25.667Z,15.57
2018-04-15T08:40:53.377Z,14.37
2018-04-15T08:43:21.040Z,13.47
2018-04-15T08:45:49.788Z,10.93
2018-04-15T08:48:17.451Z,14.27
2018-04-15T08:50:45.885Z,19.20
2018-04-15T08:53:13.624Z,12.00
2018-04-15T08:55:41.237Z,8.57
2018-04-15T08:58:08.894Z,10.50
2018-04-15T09:00:36.944Z,7.80
2018-04-15T09:03:04.660Z,11.70
2018-04-15T09:05:32.318Z,10.70
2018-04-15T09:07:59.921Z,10.33
2018-04-15T09:10:27.770Z,8.00
2018-04-15T09:12:55.413Z,9.60
2018-04-15T09:15:23.748Z,7.97
2018-04-15T09:17:51.397Z,9.67
2018-04-15T09:20:19.109Z,4.70
2018-04-15T09:22:47.360Z,8.00
2018-04-15T09:25:15.009Z,6.77
2018-04-15T09:27:42.652Z,9.50
2018-04-15T09:30:10.267Z,7.60
2018-04-15T09:32:37.875Z,7.30
2018-04-15T09:35:05.644Z,5.20
2018-04-15T09:37:33.254Z,4.90
2018-04-15T09:40:00.862Z,7.27
2018-04-15T09:42:28.531Z,7.50
2018-04-15T09:44:56.264Z,7.50
2018-04-15T09:47:23.890Z,10.70
2018-04-15T09:49:51.541Z,9.30
2018-04-15T09:52:19.151Z,9.40
2018-04-15T09:54:48.254Z,8.87
2018-04-15T09:57:15.851Z,10.47
2018-04-15T09:59:43.575Z,9.00
2018-04-15T10:02:11.814Z,8.40
2018-04-15T10:04:39.454Z,7.67
2018-04-15T10:07:07.099Z,6.80
2018-04-15T10:09:34.853Z,5.77
2018-04-15T10:12:03.108Z,7.77
2018-04-15T10:14:31.974Z,6.47
2018-04-15T10:16:59.671Z,5.90
2018-04-15T10:19:28.036Z,4.37
2018-04-15T10:21:55.702Z,5.10
2018-04-15T10:24:23.348Z,8.47
2018-04-15T10:26:50.920Z,7.60
2018-04-15T10:29:19.282Z,4.83
2018-04-15T10:31:46.944Z,5.10
2018-04-15T10:34:14.657Z,5.90
2018-04-15T10:36:42.305Z,4.80
2018-04-15T10:39:09.954Z,4.33
2018-04-15T10:41:37.595Z,4.20
2018-04-15T10:44:05.706Z,5.10
2018-04-15T10:46:33.377Z,6.27
2018-04-15T10:49:01.001Z,5.03
2018-04-15T10:51:28.613Z,4.10
2018-04-15T10:53:56.794Z,4.13
2018-04-15T10:56:24.386Z,3.20
2018-04-15T10:58:52.017Z,3.17
2018-04-15T11:01:19.629Z,3.90
2018-04-15T11:03:47.892Z,4.20
2018-04-15T11:06:16.266Z,2.93
2018-04-15T11:08:43.976Z,4.10
2018-04-15T11:11:11.628Z,3.80
2018-04-15T11:13:39.266Z,3.07
2018-04-15T11:16:07.619Z,4.80
2018-04-15T11:18:35.411Z,3.50
2018-04-15T11:21:03.795Z,3.37
2018-04-15T11:23:31.458Z,3.20
2018-04-15T11:25:59.952Z,2.60
2018-04-15T11:28:28.590Z,3.10
2018-04-15T11:30:56.192Z,3.20
2018-04-15T11:33:23.845Z,2.47
2018-04-15T11:35:51.469Z,3.33
2018-04-15T11:38:19.071Z,3.90
2018-04-15T11:40:46.777Z,3.53
2018-04-15T11:43:14.420Z,4.47
2018-04-15T11:45:41.993Z,3.60
2018-04-15T11:48:09.633Z,3.30
2018-04-15T11:50:37.271Z,3.80
2018-04-15T11:53:04.917Z,3.03
2018-04-15T11:55:32.536Z,4.27
2018-04-15T11:58:00.206Z,4.00
2018-04-15T12:00:27.942Z,3.57
2018-04-15T12:02:55.609Z,3.60
2018-04-15T12:05:23.372Z,3.30
2018-04-15T12:07:51.036Z,3.40
2018-04-15T12:10:18.687Z,3.30
2018-04-15T12:12:46.370Z,3.20
2018-04-15T12:15:14.032Z,3.23
2018-04-15T12:17:41.714Z,3.13
2018-04-15T12:20:09.452Z,2.90
2018-04-15T12:22:37.121Z,3.67
2018-04-15T12:25:04.829Z,2.97
2018-04-15T12:27:32.498Z,3.40
2018-04-15T12:30:00.142Z,4.70
2018-04-15T12:32:27.718Z,2.90
2018-04-15T12:34:55.352Z,3.20
2018-04-15T12:37:22.985Z,3.30
2018-04-15T12:39:50.615Z,2.93
2018-04-15T12:42:19.498Z,3.43
2018-04-15T12:44:47.884Z,3.97
2018-04-15T12:47:16.336Z,3.60
2018-04-15T12:49:43.934Z,5.00
2018-04-15T12:52:11.559Z,3.40
2018-04-15T12:54:39.201Z,3.30
2018-04-15T12:57:06.883Z,3.10
2018-04-15T12:59:34.569Z,4.00
2018-04-15T13:02:02.203Z,4.17
2018-04-15T13:04:29.882Z,6.80
2018-04-15T13:06:57.492Z,5.60
2018-04-15T13:09:25.167Z,5.93
2018-04-15T13:11:53.710Z,5.07
2018-04-15T13:14:21.388Z,5.27
2018-04-15T13:16:49.097Z,5.23
2018-04-15T13:19:16.776Z,4.60
2018-04-15T13:21:44.454Z,4.60
2018-04-15T13:24:12.172Z,4.53
2018-04-15T13:26:39.762Z,5.10
2018-04-15T13:29:07.401Z,5.10
2018-04-15T13:31:34.990Z,4.73
2018-04-15T13:34:03.401Z,4.70
2018-04-15T13:36:31.016Z,6.13
2018-04-15T13:38:58.708Z,8.73
2018-04-15T13:41:26.365Z,5.57
2018-04-15T13:43:53.997Z,7.20
2018-04-15T13:46:21.649Z,8.70
2018-04-15T13:48:49.278Z,4.97
2018-04-15T13:51:16.865Z,4.37
2018-04-15T13:53:44.592Z,4.40
2018-04-15T13:56:12.190Z,5.97
2018-04-15T13:58:39.797Z,5.00
2018-04-15T14:01:07.418Z,5.00
2018-04-15T14:03:35.018Z,4.07
2018-04-15T14:06:03.435Z,4.37
2018-04-15T14:08:31.052Z,4.63
2018-04-15T14:10:59.484Z,4.37
2018-04-15T14:13:27.105Z,4.20
2018-04-15T14:15:55.521Z,4.60
2018-04-15T14:18:23.175Z,3.90
2018-04-15T14:20:51.461Z,4.50
2018-04-15T14:23:19.076Z,4.03
2018-04-15T14:25:47.968Z,4.33
2018-04-15T14:28:16.368Z,4.83
2018-04-15T14:30:44.006Z,5.20
2018-04-15T14:33:12.383Z,4.40
2018-04-15T14:35:40.814Z,3.60
2018-04-15T14:38:08.417Z,4.43
2018-04-15T14:40:37.477Z,4.20
2018-04-15T14:43:05.180Z,4.47
2018-04-15T14:45:32.923Z,3.17
2018-04-15T14:48:00.533Z,4.20
2018-04-15T14:50:28.151Z,4.00
2018-04-15T14:52:55.761Z,3.63
2018-04-15T14:55:23.402Z,4.30
2018-04-15T14:57:51.028Z,3.70
2018-04-15T15:00:18.729Z,3.80
2018-04-15T15:02:46.963Z,3.90
2018-04-15T15:05:14.606Z,3.10
2018-04-15T15:07:42.236Z,4.00
2018-04-15T15:10:09.901Z,3.20
2018-04-15T15:12:38.075Z,4.50
2018-04-15T15:15:05.686Z,3.70
2018-04-15T15:17:33.293Z,3.77
2018-04-15T15:20:00.953Z,4.53
2018-04-15T15:22:28.562Z,3.50
2018-04-15T15:24:56.197Z,3.47
2018-04-15T15:27:23.965Z,3.13
2018-04-15T15:29:51.593Z,3.40
2018-04-15T15:32:19.312Z,5.00
2018-04-15T15:34:47.055Z,3.70
2018-04-15T15:37:14.651Z,2.97
2018-04-15T15:39:42.285Z,3.23
2018-04-15T15:42:10.056Z,3.57
2018-04-15T15:44:37.711Z,3.70
2018-04-15T15:47:06.117Z,4.17
2018-04-15T15:49:33.770Z,5.40
2018-04-15T15:52:02.105Z,3.40
2018-04-15T15:54:29.778Z,2.77
2018-04-15T15:56:57.458Z,4.17
2018-04-15T15:59:25.115Z,3.77
2018-04-15T16:01:53.284Z,3.93
2018-04-15T16:04:21.124Z,3.27
2018-04-15T16:06:48.732Z,3.30
2018-04-15T16:09:16.438Z,2.47
2018-04-15T16:11:44.097Z,2.80
2018-04-15T16:14:11.809Z,2.70
2018-04-15T16:16:39.470Z,2.40
2018-04-15T16:19:07.231Z,2.73
2018-04-15T16:21:35.590Z,1.90
2018-04-15T16:24:04.070Z,2.20
2018-04-15T16:26:32.428Z,1.87
2018-04-15T16:29:00.011Z,2.93
2018-04-15T16:31:27.609Z,2.80
2018-04-15T16:33:55.225Z,2.27
2018-04-15T16:36:22.796Z,2.70
2018-04-15T16:38:50.494Z,2.63
2018-04-15T16:41:18.130Z,2.50
2018-04-15T16:43:45.764Z,3.13
2018-04-15T16:46:13.441Z,2.27
2018-04-15T16:48:41.395Z,2.30
2018-04-15T16:51:09.102Z,2.40
2018-04-15T16:53:36.706Z,3.10
2018-04-15T16:56:04.367Z,3.60
2018-04-15T16:58:32.754Z,2.23
2018-04-15T17:01:00.521Z,6.50
2018-04-15T17:03:28.363Z,7.77
2018-04-15T17:05:56.028Z,10.07
2018-04-15T17:08:23.646Z,8.77
2018-04-15T17:10:51.304Z,5.30
2018-04-15T17:13:18.913Z,2.60
2018-04-15T17:15:46.564Z,2.90
2018-04-15T17:18:14.197Z,2.10
2018-04-15T17:20:41.822Z,3.27
2018-04-15T17:23:09.518Z,2.40
2018-04-15T17:25:37.239Z,3.40
2018-04-15T17:28:04.879Z,2.50
2018-04-15T17:30:33.271Z,2.63
2018-04-15T17:33:00.970Z,3.67
2018-04-15T17:35:28.613Z,2.30
2018-04-15T17:37:56.240Z,2.33
2018-04-15T17:40:23.849Z,3.50
2018-04-15T17:42:52.047Z,3.20
2018-04-15T17:45:19.663Z,2.40
2018-04-15T17:47:47.288Z,2.80
2018-04-15T17:50:14.944Z,2.83
2018-04-15T17:52:42.673Z,3.50
2018-04-15T17:55:10.313Z,2.53
2018-04-15T17:57:37.896Z,5.53
2018-04-15T18:00:05.575Z,4.03
2018-04-15T18:02:33.258Z,6.17
2018-04-15T18:05:00.832Z,3.73
2018-04-15T18:07:28.431Z,3.60
2018-04-15T18:09:56.322Z,3.73
2018-04-15T18:12:24.031Z,4.80
2018-04-15T18:14:52.454Z,3.97
2018-04-15T18:17:20.393Z,6.40
2018-04-15T18:19:48.787Z,8.07
2018-04-15T18:22:16.906Z,4.47
2018-04-15T18:24:44.593Z,4.63
2018-04-15T18:27:12.961Z,6.50
2018-04-15T18:29:40.634Z,5.10
2018-04-15T18:32:08.253Z,8.70
2018-04-15T18:34:35.887Z,8.57
2018-04-15T18:37:03.842Z,5.80
2018-04-15T18:39:32.517Z,4.93
2018-04-15T18:42:00.581Z,4.57
2018-04-15T18:44:28.197Z,4.10
2018-04-15T18:46:55.830Z,5.70
2018-04-15T18:49:23.473Z,5.70
2018-04-15T18:51:51.323Z,5.30
2018-04-15T18:54:18.979Z,4.87
2018-04-15T18:56:47.411Z,14.97
2018-04-15T18:59:15.033Z,7.53
2018-04-15T19:01:42.700Z,6.03
2018-04-15T19:04:10.345Z,7.20
2018-04-15T19:06:38.021Z,10.07
2018-04-15T19:09:06.522Z,18.63
2018-04-15T19:11:34.127Z,10.60
2018-04-15T19:14:02.137Z,7.00
2018-04-15T19:16:29.803Z,5.33
2018-04-15T19:18:58.278Z,6.20
2018-04-15T19:21:27.566Z,6.40
2018-04-15T19:23:56.496Z,6.33
2018-04-15T19:26:24.446Z,6.73
2018-04-15T19:28:52.869Z,7.13
2018-04-15T19:31:20.557Z,6.87
2018-04-15T19:33:48.191Z,8.13
2018-04-15T19:36:15.809Z,7.97
2018-04-15T19:38:43.495Z,9.10
2018-04-15T19:41:11.733Z,17.40
2018-04-15T19:43:39.390Z,7.77
2018-04-15T19:46:07.097Z,7.90
2018-04-15T19:48:35.877Z,24.87
2018-04-15T19:51:03.514Z,11.47
2018-04-15T19:53:31.132Z,9.37
2018-04-15T19:55:58.772Z,18.00
2018-04-15T19:58:26.403Z,9.90
2018-04-15T20:00:54.982Z,12.50
2018-04-15T20:03:22.674Z,14.67
2018-04-15T20:05:50.410Z,10.13
2018-04-15T20:08:18.846Z,13.03
2018-04-15T20:10:46.565Z,10.87
2018-04-15T20:13:14.325Z,9.90
2018-04-15T20:15:42.722Z,10.43
2018-04-15T20:18:10.324Z,10.60
2018-04-15T20:20:38.065Z,11.00
2018-04-15T20:23:05.653Z,10.10
2018-04-15T20:25:33.266Z,11.80
2018-04-15T20:28:00.932Z,11.80
2018-04-15T20:30:28.613Z,25.03
2018-04-15T20:32:56.353Z,11.50
2018-04-15T20:35:23.984Z,25.97
2018-04-15T20:37:51.615Z,63.07
2018-04-15T20:40:19.309Z,22.33
2018-04-15T20:42:46.982Z,28.07
2018-04-15T20:45:14.642Z,36.43
2018-04-15T20:47:42.311Z,22.70
2018-04-15T20:50:10.004Z,55.40
2018-04-15T20:52:38.568Z,42.03
2018-04-15T20:55:06.177Z,20.77
2018-04-15T20:57:33.932Z,35.40
2018-04-15T21:00:01.742Z,28.13
2018-04-15T21:02:29.459Z,12.60
2018-04-15T21:04:57.166Z,12.07
2018-04-15T21:07:24.837Z,12.30
2018-04-15T21:09:53.215Z,13.03
2018-04-15T21:12:21.696Z,27.63
2018-04-15T21:14:49.374Z,11.20
2018-04-15T21:17:17.942Z,12.43
2018-04-15T21:19:45.631Z,16.03
2018-04-15T21:22:14.812Z,10.70
2018-04-15T21:24:42.507Z,13.03
2018-04-15T21:27:10.282Z,12.50
2018-04-15T21:29:37.886Z,28.90
2018-04-15T21:32:05.918Z,21.53
2018-04-15T21:34:33.724Z,20.30
2018-04-15T21:37:01.413Z,29.57
2018-04-15T21:39:29.178Z,26.90
2018-04-15T21:41:56.817Z,12.10
2018-04-15T21:44:24.489Z,11.10
2018-04-15T21:46:52.857Z,12.30
2018-04-15T21:49:20.489Z,24.07
2018-04-15T21:51:48.092Z,13.53
2018-04-15T21:54:15.767Z,23.08
2018-04-15T21:56:44.144Z,80.87
2018-04-15T21:59:11.804Z,77.93
2018-04-15T22:01:39.481Z,13.57
2018-04-15T22:04:07.112Z,14.90
2018-04-15T22:06:34.814Z,34.70
2018-04-15T22:09:02.472Z,28.67
2018-04-15T22:11:41.837Z,21.23
2018-04-15T22:14:09.467Z,12.80
2018-04-15T22:16:37.146Z,11.70
2018-04-15T22:19:04.765Z,12.63
2018-04-15T22:21:32.370Z,11.73
2018-04-15T22:24:00.784Z,11.80
2018-04-15T22:26:28.383Z,10.70
2018-04-15T22:28:56.193Z,11.97
2018-04-15T22:31:23.875Z,11.10
2018-04-15T22:33:51.534Z,11.10
2018-04-15T22:36:19.144Z,11.27
2018-04-15T22:38:46.755Z,11.43
2018-04-15T22:41:14.326Z,11.50
2018-04-15T22:43:41.985Z,11.27
2018-04-15T22:46:09.611Z,13.13
2018-04-15T22:48:42.837Z,12.93
2018-04-15T22:51:10.458Z,14.02
2018-04-15T22:53:38.168Z,14.10
2018-04-15T22:56:10.191Z,14.32
2018-04-15T22:58:43.409Z,14.52
2018-04-15T23:01:11.822Z,14.63
2018-04-15T23:03:39.487Z,14.80
2018-04-15T23:06:07.211Z,14.07
2018-04-15T23:08:34.924Z,12.75
2018-04-15T23:11:02.709Z,13.15
2018-04-15T23:13:30.355Z,13.57
2018-04-15T23:15:58.583Z,13.45
2018-04-15T23:18:26.317Z,15.30
2018-04-15T23:20:53.977Z,14.10
2018-04-15T23:23:21.662Z,14.27
2018-04-15T23:25:49.870Z,16.23
2018-04-15T23:28:17.556Z,16.87
2018-04-15T23:30:45.227Z,14.87
2018-04-15T23:33:12.899Z,15.32
2018-04-15T23:35:40.638Z,16.02
2018-04-15T23:38:08.376Z,15.30
2018-04-15T23:40:36.265Z,15.43
2018-04-15T23:43:03.956Z,17.17
2018-04-15T23:45:31.805Z,16.35
2018-04-15T23:47:59.421Z,14.60
2018-04-15T23:50:27.054Z,14.20
2018-04-15T23:52:54.683Z,17.12
2018-04-15T23:55:22.377Z,15.75
2018-04-15T23:57:50.013Z,16.45
